createdAt,value
2017-08-04T00:00:41.087Z,0
2017-08-04T00:01:42.328Z,0
2017-08-04T00:02:43.595Z,0
2017-08-04T00:03:44.946Z,0
2017-08-04T00:04:46.237Z,0
2017-08-04T00:05:47.480Z,0
2017-08-04T00:06:48.719Z,0
2017-08-04T00:07:49.961Z,0
2017-08-04T00:08:51.217Z,0
2017-08-04T00:09:52.470Z,0
2017-08-04T00:10:53.705Z,0
2017-08-04T00:11:54.964Z,0
2017-08-04T00:12:56.198Z,0
2017-08-04T00:13:57.464Z,0
2017-08-04T00:14:58.709Z,0
2017-08-04T00:15:59.968Z,0
2017-08-04T00:17:01.219Z,0
2017-08-04T00:18:02.462Z,0
2017-08-04T00:19:03.691Z,0
2017-08-04T00:20:04.930Z,0
2017-08-04T00:21:06.185Z,0
2017-08-04T00:22:07.436Z,0
2017-08-04T00:23:08.737Z,0
2017-08-04T00:24:10.009Z,0
2017-08-04T00:25:11.239Z,0
2017-08-04T00:26:12.479Z,0
2017-08-04T00:27:13.723Z,0
2017-08-04T00:28:14.973Z,0
2017-08-04T00:29:16.274Z,0
2017-08-04T00:30:17.513Z,0
2017-08-04T00:31:18.749Z,0
2017-08-04T00:32:20.000Z,0
2017-08-04T00:33:21.242Z,0
2017-08-04T00:34:22.567Z,0
2017-08-04T00:35:23.808Z,0
2017-08-04T00:36:25.169Z,0
2017-08-04T00:37:26.462Z,0
2017-08-04T00:38:27.707Z,0
2017-08-04T00:39:28.942Z,0
2017-08-04T00:40:30.213Z,0
2017-08-04T00:41:31.447Z,0
2017-08-04T00:42:32.706Z,0
2017-08-04T00:43:33.938Z,0
2017-08-04T00:44:35.187Z,0
2017-08-04T00:45:36.441Z,0
2017-08-04T00:46:37.716Z,0
2017-08-04T00:47:38.948Z,0
2017-08-04T00:48:40.228Z,0
2017-08-04T00:49:41.461Z,0
2017-08-04T00:50:42.705Z,0
2017-08-04T00:51:43.942Z,0
2017-08-04T00:52:45.182Z,0
2017-08-04T00:53:46.454Z,0
2017-08-04T00:54:47.704Z,0
2017-08-04T00:55:48.988Z,0
2017-08-04T00:56:50.239Z,0
2017-08-04T00:57:51.481Z,0
2017-08-04T00:58:52.748Z,0
2017-08-04T00:59:53.985Z,0
2017-08-04T01:00:55.292Z,0
2017-08-04T01:01:56.542Z,0
2017-08-04T01:02:57.777Z,0
2017-08-04T01:03:59.024Z,0
2017-08-04T01:05:00.250Z,0
2017-08-04T01:06:01.522Z,0
2017-08-04T01:07:02.738Z,0
2017-08-04T01:08:03.989Z,0
2017-08-04T01:09:05.232Z,0
2017-08-04T01:10:06.471Z,0
2017-08-04T01:11:07.718Z,0
2017-08-04T01:12:08.957Z,0
2017-08-04T01:13:10.204Z,0
2017-08-04T01:14:11.445Z,0
2017-08-04T01:15:12.702Z,0
2017-08-04T01:16:13.939Z,0
2017-08-04T01:17:15.203Z,0
2017-08-04T01:18:16.423Z,0
2017-08-04T01:19:17.671Z,0
2017-08-04T01:20:18.910Z,0
2017-08-04T01:21:20.209Z,0
2017-08-04T01:22:21.457Z,0
2017-08-04T01:23:22.715Z,0
2017-08-04T01:24:23.939Z,0
2017-08-04T01:25:25.181Z,0
2017-08-04T01:26:26.430Z,0
2017-08-04T01:27:27.662Z,0
2017-08-04T01:28:29.024Z,0
2017-08-04T01:29:30.301Z,0
2017-08-04T01:30:31.512Z,0
2017-08-04T01:31:32.763Z,0
2017-08-04T01:32:33.990Z,0
2017-08-04T01:33:35.329Z,0
2017-08-04T01:34:36.580Z,0
2017-08-04T01:35:37.817Z,0
2017-08-04T01:36:39.061Z,0
2017-08-04T01:37:40.273Z,0
2017-08-04T01:38:41.584Z,0
2017-08-04T01:39:42.825Z,0
2017-08-04T01:40:44.159Z,0
2017-08-04T01:41:45.416Z,0
2017-08-04T01:42:46.643Z,0
2017-08-04T01:43:47.877Z,0
2017-08-04T01:44:49.120Z,0
2017-08-04T01:45:50.419Z,0
2017-08-04T01:46:51.650Z,0
2017-08-04T01:47:52.968Z,0
2017-08-04T01:48:54.204Z,0
2017-08-04T01:49:55.445Z,0
2017-08-04T01:50:56.759Z,0
2017-08-04T01:51:57.933Z,0
2017-08-04T01:52:59.308Z,0
2017-08-04T01:54:00.531Z,0
2017-08-04T01:55:01.791Z,0
2017-08-04T01:56:03.007Z,0
2017-08-04T01:57:04.249Z,0
2017-08-04T01:58:05.544Z,0
2017-08-04T01:59:06.864Z,0
2017-08-04T02:00:08.112Z,0
2017-08-04T02:01:09.354Z,0
2017-08-04T02:02:10.642Z,0
2017-08-04T02:03:11.873Z,0
2017-08-04T02:04:13.112Z,0
2017-08-04T02:05:14.439Z,0
2017-08-04T02:06:15.668Z,0
2017-08-04T02:07:16.909Z,0
2017-08-04T02:08:18.148Z,0
2017-08-04T02:09:19.381Z,0
2017-08-04T02:10:20.728Z,0
2017-08-04T02:11:21.962Z,0
2017-08-04T02:12:23.198Z,0
2017-08-04T02:13:24.456Z,0
2017-08-04T02:14:25.694Z,0
2017-08-04T02:15:26.933Z,0
2017-08-04T02:16:28.168Z,0
2017-08-04T02:17:29.419Z,0
2017-08-04T02:18:30.722Z,0
2017-08-04T02:19:31.947Z,0
2017-08-04T02:20:33.182Z,0
2017-08-04T02:21:34.423Z,0
2017-08-04T02:22:35.654Z,0
2017-08-04T02:23:36.884Z,0
2017-08-04T02:24:38.279Z,0
2017-08-04T02:25:39.513Z,0
2017-08-04T02:26:40.754Z,0
2017-08-04T02:27:41.988Z,0
2017-08-04T02:28:43.241Z,0
2017-08-04T02:29:44.583Z,0
2017-08-04T02:30:45.716Z,0
2017-08-04T02:31:47.022Z,0
2017-08-04T02:32:48.346Z,0
2017-08-04T02:33:49.586Z,0
2017-08-04T02:34:50.826Z,0
2017-08-04T02:35:52.065Z,0
2017-08-04T02:36:53.318Z,0
2017-08-04T02:37:54.645Z,0
2017-08-04T02:38:55.877Z,0
2017-08-04T02:39:57.146Z,0
2017-08-04T02:40:58.380Z,0
2017-08-04T02:41:59.617Z,0
2017-08-04T02:43:00.851Z,0
2017-08-04T02:44:02.238Z,0
2017-08-04T02:45:03.436Z,0
2017-08-04T02:46:04.722Z,0
2017-08-04T02:47:05.949Z,0
2017-08-04T02:48:07.193Z,0
2017-08-04T02:49:08.527Z,0
2017-08-04T02:50:09.763Z,0
2017-08-04T02:51:11.089Z,0
2017-08-04T02:52:12.321Z,0
2017-08-04T02:53:13.563Z,0
2017-08-04T02:54:14.800Z,0
2017-08-04T02:55:16.029Z,0
2017-08-04T02:56:17.276Z,0
2017-08-04T02:57:18.584Z,0
2017-08-04T02:58:19.820Z,0
2017-08-04T02:59:21.067Z,0
2017-08-04T03:00:22.296Z,0
2017-08-04T03:01:23.531Z,0
2017-08-04T03:02:24.769Z,0
2017-08-04T03:03:26.030Z,0
2017-08-04T03:04:27.269Z,0
2017-08-04T03:05:28.501Z,0
2017-08-04T03:06:29.730Z,0
2017-08-04T03:07:30.970Z,0
2017-08-04T03:08:32.197Z,0
2017-08-04T03:09:33.454Z,0
2017-08-04T03:10:34.773Z,0
2017-08-04T03:11:36.035Z,0
2017-08-04T03:12:37.261Z,0
2017-08-04T03:13:38.495Z,0
2017-08-04T03:14:39.763Z,0
2017-08-04T03:15:40.992Z,4
2017-08-04T03:16:42.262Z,4
2017-08-04T03:17:43.500Z,0
2017-08-04T03:18:44.742Z,0
2017-08-04T03:19:45.978Z,4
2017-08-04T03:20:47.217Z,4
2017-08-04T03:21:48.458Z,4
2017-08-04T03:22:49.687Z,4
2017-08-04T03:23:50.945Z,4
2017-08-04T03:24:52.273Z,8
2017-08-04T03:25:53.513Z,8
2017-08-04T03:26:54.939Z,8
2017-08-04T03:27:56.180Z,8
2017-08-04T03:28:57.455Z,12
2017-08-04T03:29:58.690Z,12
2017-08-04T03:30:59.921Z,12
2017-08-04T03:32:01.156Z,16
2017-08-04T03:33:02.397Z,20
2017-08-04T03:34:03.714Z,24
2017-08-04T03:35:04.999Z,24
2017-08-04T03:36:06.235Z,28
2017-08-04T03:37:07.467Z,36
2017-08-04T03:38:08.712Z,36
2017-08-04T03:39:09.951Z,40
2017-08-04T03:40:11.182Z,44
2017-08-04T03:41:12.461Z,52
2017-08-04T03:42:13.679Z,56
2017-08-04T03:43:15.001Z,68
2017-08-04T03:44:16.298Z,76
2017-08-04T03:45:17.552Z,88
2017-08-04T03:46:18.881Z,100
2017-08-04T03:47:20.115Z,108
2017-08-04T03:48:21.393Z,120
2017-08-04T03:49:22.646Z,124
2017-08-04T03:50:23.883Z,124
2017-08-04T03:51:25.122Z,136
2017-08-04T03:52:26.359Z,156
2017-08-04T03:53:27.640Z,172
2017-08-04T03:54:28.889Z,180
2017-08-04T03:55:30.218Z,188
2017-08-04T03:56:31.480Z,204
2017-08-04T03:57:32.698Z,220
2017-08-04T03:58:33.931Z,236
2017-08-04T03:59:35.176Z,252
2017-08-04T04:00:36.425Z,264
2017-08-04T04:01:37.659Z,284
2017-08-04T04:02:38.911Z,312
2017-08-04T04:03:40.152Z,340
2017-08-04T04:04:41.391Z,380
2017-08-04T04:05:42.640Z,416
2017-08-04T04:06:43.891Z,452
2017-08-04T04:07:45.132Z,488
2017-08-04T04:08:46.381Z,504
2017-08-04T04:09:47.616Z,504
2017-08-04T04:10:48.897Z,520
2017-08-04T04:11:50.136Z,536
2017-08-04T04:12:51.373Z,544
2017-08-04T04:13:52.638Z,544
2017-08-04T04:14:53.878Z,540
2017-08-04T04:15:55.112Z,532
2017-08-04T04:16:56.384Z,524
2017-08-04T04:17:57.623Z,524
2017-08-04T04:18:58.857Z,544
2017-08-04T04:20:00.088Z,560
2017-08-04T04:21:01.338Z,568
2017-08-04T04:22:02.588Z,576
2017-08-04T04:23:03.824Z,588
2017-08-04T04:24:05.114Z,616
2017-08-04T04:25:06.352Z,692
2017-08-04T04:26:07.591Z,756
2017-08-04T04:27:08.859Z,784
2017-08-04T04:28:10.178Z,860
2017-08-04T04:29:11.418Z,976
2017-08-04T04:30:12.683Z,1044
2017-08-04T04:31:13.899Z,1092
2017-08-04T04:32:15.141Z,1124
2017-08-04T04:33:16.388Z,1160
2017-08-04T04:34:17.605Z,1228
2017-08-04T04:35:18.916Z,1220
2017-08-04T04:36:20.153Z,1240
2017-08-04T04:37:21.398Z,1488
2017-08-04T04:38:22.633Z,1784
2017-08-04T04:39:23.953Z,1968
2017-08-04T04:40:25.331Z,2052
2017-08-04T04:41:26.572Z,2068
2017-08-04T04:42:27.813Z,2168
2017-08-04T04:43:29.046Z,2124
2017-08-04T04:44:30.285Z,2244
2017-08-04T04:45:31.519Z,2580
2017-08-04T04:46:32.754Z,2448
2017-08-04T04:47:34.095Z,2632
2017-08-04T04:48:35.230Z,2816
2017-08-04T04:49:36.616Z,3128
2017-08-04T04:50:37.851Z,3408
2017-08-04T04:51:39.099Z,3648
2017-08-04T04:52:40.420Z,3696
2017-08-04T04:53:41.581Z,3524
2017-08-04T04:54:42.902Z,2896
2017-08-04T04:55:44.147Z,2780
2017-08-04T04:56:45.373Z,3008
2017-08-04T04:57:46.618Z,3164
2017-08-04T04:58:47.908Z,3156
2017-08-04T04:59:49.315Z,3084
2017-08-04T05:00:50.642Z,2920
2017-08-04T05:01:51.862Z,2692
2017-08-04T05:02:53.102Z,2608
2017-08-04T05:03:54.347Z,2540
2017-08-04T05:04:55.594Z,2504
2017-08-04T05:05:56.873Z,2552
2017-08-04T05:06:58.120Z,2376
2017-08-04T05:07:59.356Z,2316
2017-08-04T05:09:00.586Z,2284
2017-08-04T05:10:01.825Z,2236
2017-08-04T05:11:03.050Z,2296
2017-08-04T05:12:04.325Z,2508
2017-08-04T05:13:05.579Z,2600
2017-08-04T05:14:06.845Z,2776
2017-08-04T05:15:08.072Z,2960
2017-08-04T05:16:09.314Z,3248
2017-08-04T05:17:10.552Z,3532
2017-08-04T05:18:11.781Z,3668
2017-08-04T05:19:13.140Z,3752
2017-08-04T05:20:14.462Z,3780
2017-08-04T05:21:15.710Z,3864
2017-08-04T05:22:16.965Z,3940
2017-08-04T05:23:18.186Z,4056
2017-08-04T05:24:19.527Z,4088
2017-08-04T05:25:20.806Z,4160
2017-08-04T05:26:22.046Z,4292
2017-08-04T05:27:23.343Z,4300
2017-08-04T05:28:24.587Z,3996
2017-08-04T05:29:25.922Z,3556
2017-08-04T05:30:27.173Z,3380
2017-08-04T05:31:28.408Z,3264
2017-08-04T05:32:29.653Z,3272
2017-08-04T05:33:30.889Z,3304
2017-08-04T05:34:32.133Z,3132
2017-08-04T05:35:33.370Z,2944
2017-08-04T05:36:34.624Z,2800
2017-08-04T05:37:35.857Z,2716
2017-08-04T05:38:37.202Z,2880
2017-08-04T05:39:38.479Z,3164
2017-08-04T05:40:39.723Z,3608
2017-08-04T05:41:40.949Z,3920
2017-08-04T05:42:42.190Z,4100
2017-08-04T05:43:43.511Z,4396
2017-08-04T05:44:44.757Z,4868
2017-08-04T05:45:46.003Z,4896
2017-08-04T05:46:47.236Z,4892
2017-08-04T05:47:48.474Z,4696
2017-08-04T05:48:49.756Z,4756
2017-08-04T05:49:50.999Z,4088
2017-08-04T05:50:52.294Z,3796
2017-08-04T05:51:53.587Z,4040
2017-08-04T05:52:55.002Z,4920
2017-08-04T05:53:56.241Z,4540
2017-08-04T05:54:57.532Z,4292
2017-08-04T05:55:58.769Z,3796
2017-08-04T05:57:00.020Z,3796
2017-08-04T05:58:01.279Z,4104
2017-08-04T05:59:02.647Z,4136
2017-08-04T06:00:03.878Z,3944
2017-08-04T06:01:05.149Z,4144
2017-08-04T06:02:06.447Z,5012
2017-08-04T06:03:07.688Z,5416
2017-08-04T06:04:08.923Z,6388
2017-08-04T06:05:10.196Z,6732
2017-08-04T06:06:11.427Z,6740
2017-08-04T06:07:12.662Z,7304
2017-08-04T06:08:14.011Z,8136
2017-08-04T06:09:15.273Z,8492
2017-08-04T06:10:16.503Z,8656
2017-08-04T06:11:17.749Z,8144
2017-08-04T06:12:19.040Z,8800
2017-08-04T06:13:20.278Z,7212
2017-08-04T06:14:21.556Z,6744
2017-08-04T06:15:22.871Z,5884
2017-08-04T06:16:24.128Z,5520
2017-08-04T06:17:25.365Z,5508
2017-08-04T06:18:26.610Z,5628
2017-08-04T06:19:27.953Z,5600
2017-08-04T06:20:29.214Z,6140
2017-08-04T06:21:30.449Z,6332
2017-08-04T06:22:31.688Z,6564
2017-08-04T06:23:32.932Z,6788
2017-08-04T06:24:34.164Z,7064
2017-08-04T06:25:35.409Z,7304
2017-08-04T06:26:36.669Z,7564
2017-08-04T06:27:37.895Z,7668
2017-08-04T06:28:39.248Z,7680
2017-08-04T06:29:40.503Z,7868
2017-08-04T06:30:41.750Z,7872
2017-08-04T06:31:42.981Z,7796
2017-08-04T06:32:44.220Z,7836
2017-08-04T06:33:45.470Z,8116
2017-08-04T06:34:46.718Z,8364
2017-08-04T06:35:47.967Z,8792
2017-08-04T06:36:49.205Z,9092
2017-08-04T06:37:50.447Z,9248
2017-08-04T06:38:51.690Z,9328
2017-08-04T06:39:52.997Z,9400
2017-08-04T06:40:54.237Z,9904
2017-08-04T06:41:55.521Z,10316
2017-08-04T06:42:56.769Z,10540
2017-08-04T06:43:58.012Z,10892
2017-08-04T06:44:59.250Z,10684
2017-08-04T06:46:00.490Z,10516
2017-08-04T06:47:01.734Z,11020
2017-08-04T06:48:03.036Z,11320
2017-08-04T06:49:04.361Z,12560
2017-08-04T06:50:05.604Z,13920
2017-08-04T06:51:06.846Z,14772
2017-08-04T06:52:08.088Z,16276
2017-08-04T06:53:09.545Z,18112
2017-08-04T06:54:10.882Z,21568
2017-08-04T06:55:12.113Z,21408
2017-08-04T06:56:13.350Z,26976
2017-08-04T06:57:14.599Z,29664
2017-08-04T06:58:15.842Z,35808
2017-08-04T06:59:17.193Z,49888
2017-08-04T07:00:18.438Z,31200
2017-08-04T07:01:19.675Z,28448
2017-08-04T07:02:20.948Z,22272
2017-08-04T07:03:22.163Z,22176
2017-08-04T07:04:23.501Z,23488
2017-08-04T07:05:24.768Z,20416
2017-08-04T07:06:26.002Z,19680
2017-08-04T07:07:27.282Z,20480
2017-08-04T07:08:28.524Z,19488
2017-08-04T07:09:29.763Z,18880
2017-08-04T07:10:31.024Z,21728
2017-08-04T07:11:32.274Z,20640
2017-08-04T07:12:33.550Z,19968
2017-08-04T07:13:34.781Z,21152
2017-08-04T07:14:36.026Z,22208
2017-08-04T07:15:37.277Z,25536
2017-08-04T07:16:38.517Z,24544
2017-08-04T07:17:39.793Z,24480
2017-08-04T07:18:41.035Z,29056
2017-08-04T07:19:42.284Z,39712
2017-08-04T07:20:43.535Z,30240
2017-08-04T07:21:44.784Z,36608
2017-08-04T07:22:46.032Z,30176
2017-08-04T07:23:47.272Z,22816
2017-08-04T07:24:48.637Z,26176
2017-08-04T07:25:49.886Z,18976
2017-08-04T07:26:51.165Z,19136
2017-08-04T07:27:52.436Z,20288
2017-08-04T07:28:53.711Z,19136
2017-08-04T07:29:55.010Z,25312
2017-08-04T07:30:56.366Z,40960
2017-08-04T07:31:57.606Z,22976
2017-08-04T07:32:58.849Z,20288
2017-08-04T07:34:00.101Z,21824
2017-08-04T07:35:01.361Z,20832
2017-08-04T07:36:02.709Z,32448
2017-08-04T07:37:03.860Z,29504
2017-08-04T07:38:05.240Z,37760
2017-08-04T07:39:06.547Z,20640
2017-08-04T07:40:07.786Z,24576
2017-08-04T07:41:09.043Z,33088
2017-08-04T07:42:10.286Z,20256
2017-08-04T07:43:11.621Z,40000
2017-08-04T07:44:12.916Z,28608
2017-08-04T07:45:14.162Z,23616
2017-08-04T07:46:15.402Z,40736
2017-08-04T07:47:16.657Z,34048
2017-08-04T07:48:17.900Z,25824
2017-08-04T07:49:19.156Z,26112
2017-08-04T07:50:20.402Z,30208
2017-08-04T07:51:21.664Z,26560
2017-08-04T07:52:22.926Z,22624
2017-08-04T07:53:24.166Z,32288
2017-08-04T07:54:25.420Z,21952
2017-08-04T07:55:26.664Z,23200
2017-08-04T07:56:27.912Z,22848
2017-08-04T07:57:29.184Z,23072
2017-08-04T07:58:30.442Z,24256
2017-08-04T07:59:31.701Z,24800
2017-08-04T08:00:32.973Z,28608
2017-08-04T08:01:34.218Z,31328
2017-08-04T08:02:35.521Z,29408
2017-08-04T08:03:36.786Z,28128
2017-08-04T08:04:38.027Z,25536
2017-08-04T08:05:39.276Z,25984
2017-08-04T08:06:40.527Z,29120
2017-08-04T08:07:41.800Z,26464
2017-08-04T08:08:43.093Z,24832
2017-08-04T08:09:44.336Z,27264
2017-08-04T08:10:45.592Z,25152
2017-08-04T08:11:46.917Z,37920
2017-08-04T08:12:48.096Z,24512
2017-08-04T08:13:49.348Z,23392
2017-08-04T08:14:50.658Z,55776
2017-08-04T08:15:51.906Z,13364
2017-08-04T08:16:53.321Z,71168
2017-08-04T08:17:54.564Z,66176
2017-08-04T08:18:55.815Z,66880
2017-08-04T08:19:57.072Z,66400
2017-08-04T08:20:58.303Z,67744
2017-08-04T08:21:59.551Z,16244
2017-08-04T08:23:00.810Z,23936
2017-08-04T08:24:02.078Z,88160
2017-08-04T08:25:03.327Z,51904
2017-08-04T08:26:04.586Z,70880
2017-08-04T08:27:05.837Z,19616
2017-08-04T08:28:07.119Z,15696
2017-08-04T08:29:08.465Z,10976
2017-08-04T08:30:09.718Z,8708
2017-08-04T08:31:10.998Z,16928
2017-08-04T08:32:12.231Z,60576
2017-08-04T08:33:13.485Z,14396
2017-08-04T08:34:14.787Z,10248
2017-08-04T08:35:16.034Z,7864
2017-08-04T08:36:17.301Z,9432
2017-08-04T08:37:18.546Z,14152
2017-08-04T08:38:19.797Z,22304
2017-08-04T08:39:21.119Z,18944
2017-08-04T08:40:22.469Z,24000
2017-08-04T08:41:23.727Z,22624
2017-08-04T08:42:25.054Z,24800
2017-08-04T08:43:26.292Z,18944
2017-08-04T08:44:27.631Z,14488
2017-08-04T08:45:28.888Z,19680
2017-08-04T08:46:30.193Z,18496
2017-08-04T08:47:31.452Z,12860
2017-08-04T08:48:32.703Z,8696
2017-08-04T08:49:33.942Z,17120
2017-08-04T08:50:35.201Z,21120
2017-08-04T08:51:36.516Z,42688
2017-08-04T08:52:37.807Z,23360
2017-08-04T08:53:39.064Z,29600
2017-08-04T08:54:40.301Z,35360
2017-08-04T08:55:41.542Z,70912
2017-08-04T08:56:42.799Z,92384
2017-08-04T08:57:44.040Z,27904
2017-08-04T08:58:45.408Z,23008
2017-08-04T08:59:46.662Z,23264
2017-08-04T09:00:47.908Z,18432
2017-08-04T09:01:49.156Z,15056
2017-08-04T09:02:50.389Z,14676
2017-08-04T09:03:51.765Z,15828
2017-08-04T09:04:53.016Z,13164
2017-08-04T09:05:54.264Z,15660
2017-08-04T09:06:55.506Z,12972
2017-08-04T09:07:56.765Z,15132
2017-08-04T09:08:58.081Z,17088
2017-08-04T09:09:59.399Z,58240
2017-08-04T09:11:00.762Z,34048
2017-08-04T09:12:02.002Z,30048
2017-08-04T09:13:03.251Z,66656
2017-08-04T09:14:04.495Z,39104
2017-08-04T09:15:05.757Z,79136
2017-08-04T09:16:07.053Z,83552
2017-08-04T09:17:08.284Z,90656
2017-08-04T09:18:09.533Z,98720
2017-08-04T09:19:10.772Z,67008
2017-08-04T09:20:12.023Z,28992
2017-08-04T09:21:13.270Z,33888
2017-08-04T09:22:14.538Z,25344
2017-08-04T09:23:15.768Z,24960
2017-08-04T09:24:17.051Z,22720
2017-08-04T09:25:18.300Z,22880
2017-08-04T09:26:19.546Z,17664
2017-08-04T09:27:20.796Z,17152
2017-08-04T09:28:22.059Z,24352
2017-08-04T09:29:23.403Z,20544
2017-08-04T09:30:24.721Z,20192
2017-08-04T09:31:25.964Z,92896
2017-08-04T09:32:27.221Z,23488
2017-08-04T09:33:28.458Z,23456
2017-08-04T09:34:29.715Z,25472
2017-08-04T09:35:31.057Z,43488
2017-08-04T09:36:32.321Z,25280
2017-08-04T09:37:33.568Z,26816
2017-08-04T09:38:34.806Z,21056
2017-08-04T09:39:36.141Z,19456
2017-08-04T09:40:37.377Z,22432
2017-08-04T09:41:38.729Z,37792
2017-08-04T09:42:39.980Z,23808
2017-08-04T09:43:41.237Z,24000
2017-08-04T09:44:42.476Z,22720
2017-08-04T09:45:43.785Z,22368
2017-08-04T09:46:45.014Z,22272
2017-08-04T09:47:46.287Z,21280
2017-08-04T09:48:47.538Z,21856
2017-08-04T09:49:48.791Z,24288
2017-08-04T09:50:50.048Z,22688
2017-08-04T09:51:51.265Z,19872
2017-08-04T09:52:52.543Z,17792
2017-08-04T09:53:53.746Z,18560
2017-08-04T09:54:55.032Z,20576
2017-08-04T09:55:56.283Z,18720
2017-08-04T09:56:57.524Z,19136
2017-08-04T09:57:58.773Z,18176
2017-08-04T09:59:00.028Z,17632
2017-08-04T10:00:01.293Z,17088
2017-08-04T10:01:02.681Z,16024
2017-08-04T10:02:03.945Z,13516
2017-08-04T10:03:05.176Z,14864
2017-08-04T10:04:06.441Z,15844
2017-08-04T10:05:07.664Z,11744
2017-08-04T10:06:08.927Z,10524
2017-08-04T10:07:10.270Z,9920
2017-08-04T10:08:11.520Z,8492
2017-08-04T10:09:12.797Z,8512
2017-08-04T10:10:14.019Z,8000
2017-08-04T10:11:15.308Z,8452
2017-08-04T10:12:16.569Z,8864
2017-08-04T10:13:17.820Z,7988
2017-08-04T10:14:19.077Z,5864
2017-08-04T10:15:20.346Z,5944
2017-08-04T10:16:21.609Z,7336
2017-08-04T10:17:22.924Z,15348
2017-08-04T10:18:24.175Z,10560
2017-08-04T10:19:25.562Z,10952
2017-08-04T10:20:26.824Z,10272
2017-08-04T10:21:28.070Z,8692
2017-08-04T10:22:29.308Z,9200
2017-08-04T10:23:30.561Z,10240
2017-08-04T10:24:31.790Z,10388
2017-08-04T10:25:33.137Z,10232
2017-08-04T10:26:34.399Z,14860
2017-08-04T10:27:35.638Z,16024
2017-08-04T10:28:36.896Z,13232
2017-08-04T10:29:38.409Z,11336
2017-08-04T10:30:39.636Z,11492
2017-08-04T10:31:40.881Z,12604
2017-08-04T10:32:42.135Z,12736
2017-08-04T10:33:43.389Z,16116
2017-08-04T10:34:44.634Z,15832
2017-08-04T10:35:45.883Z,16864
2017-08-04T10:36:47.190Z,17536
2017-08-04T10:37:48.538Z,20320
2017-08-04T10:38:49.786Z,20928
2017-08-04T10:39:51.030Z,24544
2017-08-04T10:40:52.264Z,34784
2017-08-04T10:41:53.655Z,35200
2017-08-04T10:42:54.954Z,33216
2017-08-04T10:43:56.211Z,28448
2017-08-04T10:44:57.458Z,27936
2017-08-04T10:45:58.705Z,27232
2017-08-04T10:47:00.068Z,26528
2017-08-04T10:48:01.352Z,24160
2017-08-04T10:49:02.700Z,23520
2017-08-04T10:50:03.947Z,20928
2017-08-04T10:51:05.196Z,16896
2017-08-04T10:52:06.445Z,18528
2017-08-04T10:53:07.723Z,21440
2017-08-04T10:54:09.007Z,23744
2017-08-04T10:55:10.273Z,20512
2017-08-04T10:56:11.522Z,18048
2017-08-04T10:57:12.782Z,13264
2017-08-04T10:58:14.019Z,13464
2017-08-04T10:59:15.271Z,15320
2017-08-04T11:00:16.594Z,15100
2017-08-04T11:01:17.853Z,16436
2017-08-04T11:02:19.111Z,14212
2017-08-04T11:03:20.349Z,13988
2017-08-04T11:04:21.604Z,14016
2017-08-04T11:05:22.937Z,18496
2017-08-04T11:06:24.124Z,19456
2017-08-04T11:07:25.417Z,20672
2017-08-04T11:08:26.656Z,19488
2017-08-04T11:09:27.901Z,17888
2017-08-04T11:10:29.141Z,17920
2017-08-04T11:11:30.396Z,19968
2017-08-04T11:12:31.670Z,17888
2017-08-04T11:13:33.014Z,14296
2017-08-04T11:14:34.234Z,10980
2017-08-04T11:15:35.487Z,9652
2017-08-04T11:16:36.738Z,10208
2017-08-04T11:17:37.973Z,10824
2017-08-04T11:18:39.253Z,6940
2017-08-04T11:19:40.558Z,4880
2017-08-04T11:20:41.799Z,3552
2017-08-04T11:21:43.057Z,3400
2017-08-04T11:22:44.287Z,3820
2017-08-04T11:23:45.525Z,12136
2017-08-04T11:24:46.843Z,18560
2017-08-04T11:25:48.076Z,20864
2017-08-04T11:26:49.357Z,21344
2017-08-04T11:27:50.604Z,17536
2017-08-04T11:28:51.843Z,20480
2017-08-04T11:29:53.097Z,17440
2017-08-04T11:30:54.328Z,16896
2017-08-04T11:31:55.594Z,15432
2017-08-04T11:32:56.930Z,17312
2017-08-04T11:33:58.187Z,22880
2017-08-04T11:34:59.429Z,16084
2017-08-04T11:36:00.671Z,14784
2017-08-04T11:37:01.929Z,14732
2017-08-04T11:38:03.245Z,17248
2017-08-04T11:39:04.750Z,20032
2017-08-04T11:40:05.989Z,16760
2017-08-04T11:41:07.246Z,16168
2017-08-04T11:42:08.460Z,19136
2017-08-04T11:43:10.011Z,22080
2017-08-04T11:44:11.311Z,20736
2017-08-04T11:45:12.565Z,20800
2017-08-04T11:46:13.812Z,17952
2017-08-04T11:47:15.114Z,13116
2017-08-04T11:48:16.300Z,13352
2017-08-04T11:49:17.653Z,13604
2017-08-04T11:50:18.940Z,17280
2017-08-04T11:51:20.175Z,13612
2017-08-04T11:52:21.443Z,16280
2017-08-04T11:53:22.683Z,14168
2017-08-04T11:54:23.946Z,16436
2017-08-04T11:55:25.221Z,17760
2017-08-04T11:56:26.570Z,16560
2017-08-04T11:57:27.809Z,14788
2017-08-04T11:58:29.160Z,17504
2017-08-04T11:59:30.407Z,20864
2017-08-04T12:00:31.696Z,18112
2017-08-04T12:01:32.951Z,17728
2017-08-04T12:02:34.190Z,13224
2017-08-04T12:03:35.437Z,14864
2017-08-04T12:04:36.682Z,13116
2017-08-04T12:05:37.931Z,15168
2017-08-04T12:06:39.171Z,15276
2017-08-04T12:07:40.505Z,16376
2017-08-04T12:08:41.667Z,14872
2017-08-04T12:09:42.936Z,15084
2017-08-04T12:10:44.171Z,14136
2017-08-04T12:11:45.416Z,15588
2017-08-04T12:12:46.685Z,15816
2017-08-04T12:13:48.010Z,16672
2017-08-04T12:14:49.344Z,13280
2017-08-04T12:15:50.589Z,13144
2017-08-04T12:16:51.827Z,14928
2017-08-04T12:17:53.070Z,13768
2017-08-04T12:18:54.325Z,13668
2017-08-04T12:19:55.604Z,13884
2017-08-04T12:20:56.969Z,15332
2017-08-04T12:21:58.206Z,14052
2017-08-04T12:22:59.447Z,13416
2017-08-04T12:24:00.688Z,14808
2017-08-04T12:25:01.943Z,16180
2017-08-04T12:26:03.317Z,16248
2017-08-04T12:27:04.605Z,16328
2017-08-04T12:28:05.850Z,15752
2017-08-04T12:29:07.091Z,15080
2017-08-04T12:30:08.332Z,13588
2017-08-04T12:31:09.571Z,13884
2017-08-04T12:32:10.920Z,14000
2017-08-04T12:33:12.169Z,13868
2017-08-04T12:34:13.412Z,13572
2017-08-04T12:35:14.673Z,9724
2017-08-04T12:36:15.920Z,7052
2017-08-04T12:37:17.200Z,5828
2017-08-04T12:38:18.404Z,5204
2017-08-04T12:39:19.671Z,4916
2017-08-04T12:40:20.938Z,5008
2017-08-04T12:41:22.177Z,5596
2017-08-04T12:42:23.418Z,5764
2017-08-04T12:43:24.661Z,7448
2017-08-04T12:44:25.923Z,9168
2017-08-04T12:45:27.183Z,9236
2017-08-04T12:46:28.440Z,8456
2017-08-04T12:47:29.700Z,6900
2017-08-04T12:48:31.156Z,6564
2017-08-04T12:49:32.417Z,6708
2017-08-04T12:50:33.687Z,7456
2017-08-04T12:51:34.946Z,8532
2017-08-04T12:52:36.199Z,8372
2017-08-04T12:53:37.442Z,9540
2017-08-04T12:54:38.685Z,12092
2017-08-04T12:55:39.939Z,12980
2017-08-04T12:56:41.175Z,12928
2017-08-04T12:57:42.429Z,12824
2017-08-04T12:58:43.669Z,11548
2017-08-04T12:59:45.070Z,10960
2017-08-04T13:00:46.318Z,10536
2017-08-04T13:01:47.562Z,11008
2017-08-04T13:02:48.827Z,12808
2017-08-04T13:03:50.072Z,13676
2017-08-04T13:04:51.433Z,11388
2017-08-04T13:05:52.679Z,12852
2017-08-04T13:06:53.925Z,13764
2017-08-04T13:07:55.183Z,10224
2017-08-04T13:08:56.431Z,10732
2017-08-04T13:09:57.768Z,12704
2017-08-04T13:10:59.069Z,9840
2017-08-04T13:12:00.316Z,9152
2017-08-04T13:13:01.575Z,11200
2017-08-04T13:14:02.794Z,12936
2017-08-04T13:15:04.124Z,12420
2017-08-04T13:16:05.364Z,10884
2017-08-04T13:17:06.642Z,10560
2017-08-04T13:18:07.884Z,11060
2017-08-04T13:19:09.234Z,11972
2017-08-04T13:20:10.478Z,12616
2017-08-04T13:21:11.723Z,12616
2017-08-04T13:22:12.977Z,13060
2017-08-04T13:23:14.259Z,13668
2017-08-04T13:24:15.497Z,11908
2017-08-04T13:25:16.732Z,12108
2017-08-04T13:26:17.977Z,10048
2017-08-04T13:27:19.285Z,10404
2017-08-04T13:28:20.653Z,12872
2017-08-04T13:29:21.958Z,13560
2017-08-04T13:30:23.184Z,13400
2017-08-04T13:31:24.425Z,12612
2017-08-04T13:32:25.671Z,12820
2017-08-04T13:33:27.016Z,12848
2017-08-04T13:34:28.139Z,12160
2017-08-04T13:35:29.467Z,11796
2017-08-04T13:36:30.712Z,9352
2017-08-04T13:37:31.956Z,10048
2017-08-04T13:38:33.205Z,9004
2017-08-04T13:39:34.446Z,9112
2017-08-04T13:40:35.689Z,8844
2017-08-04T13:41:36.948Z,8672
2017-08-04T13:42:38.201Z,7788
2017-08-04T13:43:39.490Z,8488
2017-08-04T13:44:40.960Z,8288
2017-08-04T13:45:42.202Z,7696
2017-08-04T13:46:43.761Z,8648